createdAt,value
2022-08-18T00:01:16.027Z,21.70
2022-08-18T00:03:56.795Z,17.13
2022-08-18T00:06:29.596Z,15.90
2022-08-18T00:08:59.847Z,18.23
2022-08-18T00:11:40.518Z,19.30
2022-08-18T00:14:21.215Z,16.03
2022-08-18T00:16:51.858Z,17.93
2022-08-18T00:19:20.219Z,18.87
2022-08-18T00:22:08.856Z,17.67
2022-08-18T00:24:47.795Z,18.17
2022-08-18T00:27:23.395Z,18.87
2022-08-18T00:29:54.838Z,18.67
2022-08-18T00:32:26.429Z,19.57
2022-08-18T00:34:55.440Z,17.90
2022-08-18T00:37:25.050Z,14.83
2022-08-18T00:39:54.186Z,18.63
2022-08-18T00:42:29.050Z,17.13
2022-08-18T00:45:03.499Z,16.93
2022-08-18T00:47:42.358Z,18.03
2022-08-18T00:50:15.918Z,22.37
2022-08-18T00:52:48.702Z,20.70
2022-08-18T00:55:19.366Z,16.90
2022-08-18T00:57:49.624Z,15.93
2022-08-18T01:00:19.530Z,20.13
2022-08-18T01:02:52.449Z,17.43
2022-08-18T01:05:25.968Z,17.30
2022-08-18T01:07:54.285Z,19.93
2022-08-18T01:10:24.779Z,16.90
2022-08-18T01:12:55.724Z,20.87
2022-08-18T01:15:30.241Z,20.97
2022-08-18T01:18:17.414Z,30.77
2022-08-18T01:21:16.348Z,19.03
2022-08-18T01:23:47.051Z,17.73
2022-08-18T01:26:16.850Z,23.87
2022-08-18T01:28:47.398Z,20.90
2022-08-18T01:31:33.057Z,20.60
2022-08-18T01:34:02.137Z,21.57
2022-08-18T01:36:30.480Z,22.97
2022-08-18T01:39:00.645Z,18.53
2022-08-18T01:41:30.764Z,23.03
2022-08-18T01:43:59.503Z,25.07
2022-08-18T01:46:28.487Z,21.67
2022-08-18T01:48:58.605Z,16.33
2022-08-18T01:51:38.276Z,20.97
2022-08-18T01:54:13.525Z,19.50
2022-08-18T01:56:43.221Z,23.50
2022-08-18T01:59:14.421Z,16.40
2022-08-18T02:01:48.712Z,18.83
2022-08-18T02:04:34.980Z,20.10
2022-08-18T02:07:07.043Z,20.90
2022-08-18T02:09:38.382Z,15.83
2022-08-18T02:12:07.977Z,18.90
2022-08-18T02:14:37.076Z,16.47
2022-08-18T02:17:08.357Z,22.57
2022-08-18T02:19:38.286Z,14.97
2022-08-18T02:22:07.952Z,21.57
2022-08-18T02:24:38.054Z,18.77
2022-08-18T02:27:06.764Z,17.77
2022-08-18T02:29:35.540Z,21.20
2022-08-18T02:32:03.828Z,23.53
2022-08-18T02:34:31.943Z,20.13
2022-08-18T02:37:00.991Z,21.03
2022-08-18T02:39:29.507Z,22.30
2022-08-18T02:41:58.963Z,16.80
2022-08-18T02:44:26.999Z,20.20
2022-08-18T02:46:55.915Z,15.73
2022-08-18T02:49:24.158Z,21.37
2022-08-18T02:51:52.862Z,23.70
2022-08-18T02:54:23.126Z,19.13
2022-08-18T02:56:52.199Z,21.37
2022-08-18T02:59:24.289Z,19.53
2022-08-18T03:01:57.286Z,19.47
2022-08-18T03:04:30.210Z,21.20
2022-08-18T03:07:01.514Z,19.73
2022-08-18T03:09:30.995Z,21.83
2022-08-18T03:11:59.797Z,18.03
2022-08-18T03:14:30.368Z,23.47
2022-08-18T03:16:58.700Z,24.80
2022-08-18T03:19:28.674Z,24.47
2022-08-18T03:22:02.530Z,30.07
2022-08-18T03:24:32.790Z,28.60
2022-08-18T03:27:05.862Z,29.37
2022-08-18T03:29:36.838Z,32.73
2022-08-18T03:32:08.601Z,30.50
2022-08-18T03:34:36.732Z,30.03
2022-08-18T03:37:05.578Z,31.90
2022-08-18T03:39:33.726Z,26.53
2022-08-18T03:42:02.339Z,28.27
2022-08-18T03:44:32.300Z,29.07
2022-08-18T03:47:03.823Z,31.70
2022-08-18T03:49:33.672Z,29.53
2022-08-18T03:52:02.538Z,32.80
2022-08-18T03:54:33.695Z,32.13
2022-08-18T03:57:02.289Z,35.47
2022-08-18T03:59:32.162Z,28.07
2022-08-18T04:02:05.926Z,40.97
2022-08-18T04:04:35.330Z,34.43
2022-08-18T04:07:09.306Z,31.53
2022-08-18T04:09:39.257Z,33.63
2022-08-18T04:12:16.279Z,35.10
2022-08-18T04:14:48.154Z,33.60
2022-08-18T04:17:20.348Z,36.10
2022-08-18T04:19:48.542Z,34.50
2022-08-18T04:22:17.384Z,33.33
2022-08-18T04:24:46.877Z,31.43
2022-08-18T04:27:14.976Z,33.23
2022-08-18T04:29:43.113Z,32.20
2022-08-18T04:32:11.209Z,28.53
2022-08-18T04:34:40.794Z,31.67
2022-08-18T04:37:10.935Z,26.50
2022-08-18T04:39:39.500Z,33.23
2022-08-18T04:42:07.853Z,27.33
2022-08-18T04:44:37.894Z,27.97
2022-08-18T04:47:07.707Z,27.63
2022-08-18T04:49:36.668Z,27.13
2022-08-18T04:52:38.853Z,22.90
2022-08-18T04:55:09.952Z,23.10
2022-08-18T04:57:38.503Z,23.73
2022-08-18T05:00:13.590Z,24.23
2022-08-18T05:02:42.490Z,26.90
2022-08-18T05:05:11.117Z,22.27
2022-08-18T05:07:46.647Z,20.83
2022-08-18T05:10:17.563Z,21.67
2022-08-18T05:12:48.349Z,22.40
2022-08-18T05:15:17.703Z,23.30
2022-08-18T05:17:46.944Z,23.33
2022-08-18T05:20:19.334Z,27.90
2022-08-18T05:22:49.055Z,26.60
2022-08-18T05:25:17.671Z,22.83
2022-08-18T05:27:45.958Z,30.87
2022-08-18T05:30:15.207Z,23.83
2022-08-18T05:32:49.049Z,25.80
2022-08-18T05:35:24.345Z,24.37
2022-08-18T05:38:05.042Z,25.60
2022-08-18T05:40:33.391Z,24.70
2022-08-18T05:43:02.562Z,28.03
2022-08-18T05:45:30.904Z,23.03
2022-08-18T05:47:59.953Z,29.23
2022-08-18T05:50:30.462Z,26.07
2022-08-18T05:53:05.561Z,23.73
2022-08-18T05:56:04.419Z,25.07
2022-08-18T05:58:36.584Z,28.87
2022-08-18T06:01:08.962Z,34.93
2022-08-18T06:03:45.481Z,33.80
2022-08-18T06:06:19.842Z,40.27
2022-08-18T06:08:54.976Z,37.57
2022-08-18T06:11:23.836Z,38.93
2022-08-18T06:13:59.646Z,35.00
2022-08-18T06:16:47.857Z,42.50
2022-08-18T06:19:40.172Z,38.70
2022-08-18T06:22:20.873Z,41.77
2022-08-18T06:25:00.843Z,35.37
2022-08-18T06:27:39.599Z,38.93
2022-08-18T06:30:14.476Z,36.30
2022-08-18T06:33:22.469Z,42.67
2022-08-18T06:35:53.066Z,39.70
2022-08-18T06:38:45.279Z,42.67
2022-08-18T06:41:42.124Z,34.93
2022-08-18T06:44:08.994Z,40.23
2022-08-18T06:46:46.842Z,38.60
2022-08-18T06:49:22.681Z,34.77
2022-08-18T06:51:50.734Z,36.80
2022-08-18T06:54:30.905Z,31.03
2022-08-18T06:57:00.396Z,31.70
2022-08-18T06:59:31.134Z,33.53
2022-08-18T07:02:02.071Z,26.37
2022-08-18T07:04:38.206Z,28.57
2022-08-18T07:07:21.710Z,28.60
2022-08-18T07:09:52.953Z,29.07
2022-08-18T07:12:29.074Z,22.93
2022-08-18T07:15:03.203Z,25.30
2022-08-18T07:17:42.705Z,26.20
2022-08-18T07:20:23.607Z,22.97
2022-08-18T07:23:00.288Z,24.40
2022-08-18T07:25:33.641Z,21.10
2022-08-18T07:28:03.306Z,22.30
2022-08-18T07:30:35.790Z,24.70
2022-08-18T07:33:13.079Z,32.97
2022-08-18T07:35:47.590Z,21.67
2022-08-18T07:38:41.507Z,26.17
2022-08-18T07:41:15.579Z,25.07
2022-08-18T07:44:02.614Z,22.63
2022-08-18T07:46:36.568Z,26.53
2022-08-18T07:49:06.386Z,22.33
2022-08-18T07:51:47.321Z,22.30
2022-08-18T07:54:48.338Z,21.40
2022-08-18T07:57:20.273Z,20.20
2022-08-18T07:59:59.029Z,21.27
2022-08-18T08:02:38.549Z,21.17
2022-08-18T08:05:15.848Z,17.97
2022-08-18T08:07:54.294Z,23.23
2022-08-18T08:10:37.520Z,20.93
2022-08-18T08:13:31.086Z,20.13
2022-08-18T08:16:13.835Z,20.17
2022-08-18T08:18:53.004Z,15.80
2022-08-18T08:21:24.047Z,17.03
2022-08-18T08:23:57.865Z,20.60
2022-08-18T08:26:37.571Z,17.37
2022-08-18T08:29:24.073Z,17.10
2022-08-18T08:32:02.615Z,17.63
2022-08-18T08:34:36.316Z,18.27
2022-08-18T08:37:07.672Z,16.27
2022-08-18T08:39:41.807Z,12.57
2022-08-18T08:42:30.950Z,15.40
2022-08-18T08:45:07.721Z,15.73
2022-08-18T08:47:46.105Z,13.83
2022-08-18T08:50:17.492Z,11.00
2022-08-18T08:52:50.136Z,13.03
2022-08-18T08:55:25.514Z,10.37
2022-08-18T08:57:59.120Z,9.70
2022-08-18T09:00:28.371Z,16.23
2022-08-18T09:03:10.754Z,9.90
2022-08-18T09:05:46.200Z,10.67
2022-08-18T09:08:39.206Z,13.70
2022-08-18T09:11:55.943Z,10.73
2022-08-18T09:14:59.299Z,9.50
2022-08-18T09:17:55.938Z,8.10
2022-08-18T09:20:49.480Z,9.97
2022-08-18T09:23:21.102Z,8.90
2022-08-18T09:25:52.370Z,10.50
2022-08-18T09:28:24.759Z,6.67
2022-08-18T09:31:19.564Z,7.80
2022-08-18T09:34:10.643Z,8.90
2022-08-18T09:36:57.732Z,7.53
2022-08-18T09:39:54.380Z,9.50
2022-08-18T09:45:57.623Z,8.97
2022-08-18T09:48:32.290Z,10.07
2022-08-18T09:51:33.391Z,5.80
2022-08-18T09:54:25.100Z,9.30
2022-08-18T09:57:19.299Z,7.97
2022-08-18T09:59:53.980Z,7.63
2022-08-18T10:03:10.247Z,7.67
2022-08-18T10:05:39.414Z,7.77
2022-08-18T10:08:45.569Z,6.53
2022-08-18T10:11:30.408Z,10.47
2022-08-18T10:14:10.513Z,5.83
2022-08-18T10:17:16.032Z,6.13
2022-08-18T10:19:50.151Z,7.67
2022-08-18T10:22:39.936Z,6.27
2022-08-18T10:25:22.859Z,5.27
2022-08-18T10:27:56.626Z,6.73
2022-08-18T10:31:06.596Z,5.07
2022-08-18T10:36:59.122Z,6.37
2022-08-18T10:39:46.371Z,6.73
2022-08-18T10:42:23.465Z,5.90
2022-08-18T10:45:07.495Z,15.87
2022-08-18T10:47:38.320Z,27.17
2022-08-18T10:50:19.933Z,19.53
2022-08-18T10:53:24.071Z,14.27
2022-08-18T10:59:07.278Z,7.07
2022-08-18T11:02:06.108Z,9.20
2022-08-18T11:04:38.921Z,10.27
2022-08-18T11:07:11.750Z,7.77
2022-08-18T11:13:09.754Z,8.60
2022-08-18T11:15:50.552Z,10.83
2022-08-18T11:18:32.703Z,8.67
2022-08-18T11:21:25.139Z,9.23
2022-08-18T11:27:03.076Z,9.23
2022-08-18T11:29:35.131Z,10.23
2022-08-18T11:32:10.985Z,9.80
2022-08-18T11:34:52.056Z,7.63
2022-08-18T11:37:27.029Z,11.63
2022-08-18T11:39:58.911Z,8.20
2022-08-18T11:42:33.374Z,5.73
2022-08-18T11:45:14.653Z,13.27
2022-08-18T11:48:02.507Z,8.20
2022-08-18T11:50:33.772Z,8.40
2022-08-18T11:53:18.873Z,8.33
2022-08-18T11:56:15.357Z,6.80
2022-08-18T11:58:47.255Z,9.47
2022-08-18T12:04:37.422Z,7.37
2022-08-18T12:07:10.716Z,10.20
2022-08-18T12:12:35.028Z,7.87
2022-08-18T12:15:25.263Z,10.00
2022-08-18T12:17:58.093Z,6.87
2022-08-18T12:20:26.184Z,8.40
2022-08-18T12:22:58.164Z,5.97
2022-08-18T12:25:26.349Z,6.10
2022-08-18T12:27:54.820Z,8.13
2022-08-18T12:30:23.452Z,9.97
2022-08-18T12:33:01.081Z,7.77
2022-08-18T12:35:34.866Z,7.30
2022-08-18T12:38:12.802Z,7.13
2022-08-18T12:40:43.140Z,8.07
2022-08-18T12:43:11.310Z,8.90
2022-08-18T12:45:39.815Z,9.10
2022-08-18T12:48:09.962Z,7.77
2022-08-18T12:50:49.780Z,8.10
2022-08-18T12:53:29.497Z,7.90
2022-08-18T12:56:08.601Z,8.67
2022-08-18T13:01:28.001Z,7.93
2022-08-18T13:04:10.805Z,5.80
2022-08-18T13:07:01.333Z,7.73
2022-08-18T13:09:34.759Z,10.70
2022-08-18T13:12:20.812Z,6.83
2022-08-18T13:14:50.925Z,9.77
2022-08-18T13:17:32.185Z,7.67
2022-08-18T13:20:04.420Z,7.97
2022-08-18T13:22:33.537Z,9.00
2022-08-18T13:25:05.330Z,6.47
2022-08-18T13:27:36.078Z,7.87
2022-08-18T13:30:29.888Z,6.10
2022-08-18T13:32:59.375Z,6.73
2022-08-18T13:35:30.067Z,6.80
2022-08-18T13:38:14.399Z,8.20
2022-08-18T13:40:48.313Z,6.97
2022-08-18T13:43:17.451Z,5.30
2022-08-18T13:45:52.664Z,8.67
2022-08-18T13:48:21.785Z,5.30
2022-08-18T13:50:53.715Z,5.23
2022-08-18T13:53:24.726Z,7.57
2022-08-18T13:55:58.043Z,7.40
2022-08-18T13:58:27.355Z,7.23
2022-08-18T14:01:15.926Z,6.60
2022-08-18T14:03:47.883Z,5.53
2022-08-18T14:06:22.194Z,5.77
2022-08-18T14:08:52.769Z,6.00
2022-08-18T14:11:27.982Z,9.50
2022-08-18T14:14:02.500Z,6.70
2022-08-18T14:16:31.225Z,6.87
2022-08-18T14:19:17.721Z,5.50
2022-08-18T14:22:06.161Z,7.77
2022-08-18T14:24:53.055Z,7.23
2022-08-18T14:27:34.977Z,7.67
2022-08-18T14:30:06.726Z,7.50
2022-08-18T14:32:36.071Z,5.73
2022-08-18T14:35:32.119Z,7.50
2022-08-18T14:37:56.285Z,7.97
2022-08-18T14:40:25.298Z,7.93
2022-08-18T14:42:55.520Z,6.67
2022-08-18T14:45:31.774Z,7.40
2022-08-18T14:48:06.558Z,7.27
2022-08-18T14:50:36.871Z,7.40
2022-08-18T14:53:05.547Z,8.37
2022-08-18T14:55:34.116Z,12.67
2022-08-18T14:58:03.861Z,13.70
2022-08-18T15:00:35.667Z,8.30
2022-08-18T15:03:21.721Z,9.23
2022-08-18T15:05:56.539Z,8.87
2022-08-18T15:08:25.067Z,6.70
2022-08-18T15:10:54.735Z,6.83
2022-08-18T15:13:25.023Z,7.73
2022-08-18T15:15:55.835Z,5.57
2022-08-18T15:18:31.389Z,8.47
2022-08-18T15:21:34.807Z,7.77
2022-08-18T15:24:20.844Z,7.33
2022-08-18T15:26:57.542Z,6.30
2022-08-18T15:29:29.402Z,7.93
2022-08-18T15:32:02.090Z,4.83
2022-08-18T15:34:47.043Z,7.50
2022-08-18T15:37:24.205Z,6.27
2022-08-18T15:40:03.578Z,6.17
2022-08-18T15:42:33.214Z,5.23
2022-08-18T15:45:12.126Z,4.00
2022-08-18T15:47:42.396Z,5.47
2022-08-18T15:50:22.510Z,5.83
2022-08-18T15:52:56.390Z,6.67
2022-08-18T15:55:26.095Z,4.40
2022-08-18T15:57:58.354Z,4.20
2022-08-18T16:00:31.744Z,4.03
2022-08-18T16:03:02.043Z,3.60
2022-08-18T16:05:33.566Z,5.40
2022-08-18T16:08:02.446Z,4.30
2022-08-18T16:10:34.165Z,3.50
2022-08-18T16:13:04.585Z,4.67
2022-08-18T16:15:38.165Z,4.50
2022-08-18T16:18:09.638Z,6.70
2022-08-18T16:20:39.063Z,5.20
2022-08-18T16:23:07.840Z,3.67
2022-08-18T16:25:39.061Z,6.60
2022-08-18T16:28:07.676Z,6.50
2022-08-18T16:30:37.392Z,3.70
2022-08-18T16:33:07.657Z,3.07
2022-08-18T16:35:37.279Z,3.93
2022-08-18T16:38:08.677Z,3.30
2022-08-18T16:40:37.376Z,3.33
2022-08-18T16:43:07.155Z,2.87
2022-08-18T16:45:38.332Z,3.83
2022-08-18T16:48:08.229Z,3.40
2022-08-18T16:50:37.721Z,3.20
2022-08-18T16:53:06.423Z,4.10
2022-08-18T16:55:35.178Z,4.17
2022-08-18T16:58:20.962Z,2.57
2022-08-18T17:01:18.717Z,2.73
2022-08-18T17:04:04.850Z,2.43
2022-08-18T17:06:47.081Z,3.17
2022-08-18T17:09:16.330Z,2.47
2022-08-18T17:11:48.126Z,2.57
2022-08-18T17:14:21.721Z,2.67
2022-08-18T17:16:54.901Z,2.67
2022-08-18T17:19:24.340Z,2.53
2022-08-18T17:21:52.658Z,2.37
2022-08-18T17:24:31.863Z,4.47
2022-08-18T17:27:14.616Z,2.93
2022-08-18T17:30:03.682Z,2.67
2022-08-18T17:32:52.395Z,3.10
2022-08-18T17:35:28.943Z,3.33
2022-08-18T17:38:02.368Z,6.43
2022-08-18T17:40:37.626Z,2.40
2022-08-18T17:43:17.866Z,3.83
2022-08-18T17:45:49.917Z,2.37
2022-08-18T17:48:23.180Z,7.37
2022-08-18T17:51:15.478Z,145.73
2022-08-18T17:53:43.702Z,90.80
2022-08-18T17:56:16.890Z,53.03
2022-08-18T17:58:53.212Z,14.40
2022-08-18T18:01:21.431Z,26.13
2022-08-18T18:03:51.460Z,14.37
2022-08-18T18:06:30.040Z,9.63
2022-08-18T18:09:00.920Z,6.27
2022-08-18T18:11:32.561Z,4.83
2022-08-18T18:14:01.988Z,7.73
2022-08-18T18:16:35.311Z,3.60
2022-08-18T18:19:08.475Z,7.00
2022-08-18T18:22:00.761Z,8.00
2022-08-18T18:24:31.813Z,6.40
2022-08-18T18:27:00.152Z,2.87
2022-08-18T18:29:34.482Z,6.87
2022-08-18T18:32:07.960Z,3.63
2022-08-18T18:34:39.640Z,3.70
2022-08-18T18:37:26.130Z,5.23
2022-08-18T18:40:00.268Z,3.03
2022-08-18T18:42:30.928Z,3.33
2022-08-18T18:45:00.616Z,3.53
2022-08-18T18:47:45.894Z,2.60
2022-08-18T18:50:24.820Z,4.43
2022-08-18T18:53:04.070Z,3.60
2022-08-18T18:55:36.664Z,4.17
2022-08-18T18:58:16.662Z,3.17
2022-08-18T19:00:53.607Z,3.10
2022-08-18T19:03:28.875Z,3.10
2022-08-18T19:06:20.066Z,2.70
2022-08-18T19:09:08.482Z,3.10
2022-08-18T19:11:52.593Z,4.07
2022-08-18T19:14:25.110Z,4.90
2022-08-18T19:16:57.851Z,2.63
2022-08-18T19:19:38.465Z,4.47
2022-08-18T19:22:14.985Z,3.83
2022-08-18T19:24:52.195Z,3.70
2022-08-18T19:27:30.163Z,3.27
2022-08-18T19:30:02.617Z,2.83
2022-08-18T19:32:37.813Z,5.77
2022-08-18T19:35:11.982Z,2.53
2022-08-18T19:38:01.876Z,3.50
2022-08-18T19:40:39.621Z,2.53
2022-08-18T19:43:12.841Z,3.67
2022-08-18T19:45:47.887Z,5.63
2022-08-18T19:48:23.155Z,3.40
2022-08-18T19:50:56.641Z,3.10
2022-08-18T19:53:40.187Z,3.77
2022-08-18T19:56:26.161Z,4.27
2022-08-18T19:59:24.409Z,3.03
2022-08-18T20:02:06.608Z,2.70
2022-08-18T20:04:45.647Z,2.40
2022-08-18T20:07:40.864Z,4.03
2022-08-18T20:10:40.846Z,3.60
2022-08-18T20:13:26.646Z,3.50
2022-08-18T20:16:44.596Z,3.07
2022-08-18T20:19:45.538Z,3.23
2022-08-18T20:22:29.999Z,3.57
2022-08-18T20:25:05.647Z,2.70
2022-08-18T20:27:38.970Z,5.03
2022-08-18T20:30:32.845Z,4.03
2022-08-18T20:33:19.057Z,5.10
2022-08-18T20:36:07.865Z,4.93
2022-08-18T20:38:38.677Z,3.93
2022-08-18T20:41:40.444Z,3.87
2022-08-18T20:44:47.900Z,4.30
2022-08-18T20:47:44.885Z,5.87
2022-08-18T20:50:45.791Z,4.87
2022-08-18T20:53:30.355Z,4.73
2022-08-18T20:56:32.388Z,4.00
2022-08-18T20:59:08.614Z,4.30
2022-08-18T21:01:39.039Z,6.53
2022-08-18T21:04:07.807Z,5.07
2022-08-18T21:06:42.007Z,3.90
2022-08-18T21:09:10.577Z,5.77
2022-08-18T21:11:42.927Z,5.40
2022-08-18T21:14:12.919Z,7.73
2022-08-18T21:16:45.025Z,5.13
2022-08-18T21:19:20.262Z,8.43
2022-08-18T21:21:51.412Z,4.70
2022-08-18T21:24:32.402Z,4.97
2022-08-18T21:27:05.125Z,7.17
2022-08-18T21:29:47.107Z,4.90
2022-08-18T21:32:22.085Z,5.80
2022-08-18T21:34:50.286Z,5.23
2022-08-18T21:37:20.139Z,6.43
2022-08-18T21:39:52.032Z,4.30
2022-08-18T21:42:23.281Z,5.67
2022-08-18T21:44:58.708Z,5.43
2022-08-18T21:47:33.324Z,4.87
2022-08-18T21:50:10.179Z,5.47
2022-08-18T21:52:40.885Z,5.00
2022-08-18T21:55:19.843Z,5.00
2022-08-18T21:58:00.856Z,5.50
2022-08-18T22:00:31.286Z,7.53
2022-08-18T22:03:19.026Z,5.87
2022-08-18T22:05:59.603Z,5.00
2022-08-18T22:08:31.000Z,5.57
2022-08-18T22:12:00.589Z,5.30
2022-08-18T22:14:36.088Z,10.83
2022-08-18T22:17:31.266Z,7.33
2022-08-18T22:20:34.827Z,9.43
2022-08-18T22:23:25.051Z,6.60
2022-08-18T22:25:53.284Z,5.97
2022-08-18T22:28:23.335Z,6.17
2022-08-18T22:30:51.458Z,6.20
2022-08-18T22:33:19.632Z,5.87
2022-08-18T22:35:55.828Z,9.27
2022-08-18T22:38:25.018Z,7.20
2022-08-18T22:40:53.645Z,6.30
2022-08-18T22:43:21.942Z,10.00
2022-08-18T22:45:49.977Z,7.50
2022-08-18T22:48:18.161Z,6.83
2022-08-18T22:50:47.464Z,6.10
2022-08-18T22:53:18.676Z,5.30
2022-08-18T22:55:47.310Z,5.33
2022-08-18T22:58:17.609Z,7.47
2022-08-18T23:00:50.701Z,6.27
2022-08-18T23:03:20.356Z,7.77
2022-08-18T23:05:48.692Z,6.90
2022-08-18T23:08:18.166Z,6.53
2022-08-18T23:10:56.366Z,6.03
2022-08-18T23:13:27.131Z,8.10
2022-08-18T23:16:30.921Z,7.00
2022-08-18T23:18:45.238Z,6.33
2022-08-18T23:21:13.411Z,7.93
2022-08-18T23:24:03.139Z,8.67
2022-08-18T23:26:31.238Z,7.83
2022-08-18T23:28:59.333Z,8.90
2022-08-18T23:31:27.755Z,7.77
2022-08-18T23:33:55.938Z,6.93
2022-08-18T23:36:24.097Z,9.97
2022-08-18T23:38:53.928Z,7.10
2022-08-18T23:41:23.921Z,7.90
2022-08-18T23:43:52.621Z,10.67
2022-08-18T23:46:23.032Z,9.10
2022-08-18T23:48:51.637Z,8.13
2022-08-18T23:51:29.244Z,7.87
2022-08-18T23:53:58.867Z,11.23
2022-08-18T23:56:30.825Z,7.90
2022-08-18T23:58:59.511Z,9.03
